sensor_id;sensor_type;location;lat;lon;timestamp;pressure;altitude;pressure_sealevel;temperature;humidity
19624;BME280;9959;49.798;9.928;2023-03-21T00:00:22;99884.44;;;8.61;64.87
19624;BME280;9959;49.798;9.928;2023-03-21T00:02:49;99888.53;;;8.57;65.17
19624;BME280;9959;49.798;9.928;2023-03-21T00:05:16;99874.91;;;8.59;64.92
19624;BME280;9959;49.798;9.928;2023-03-21T00:07:43;99878.88;;;8.63;65.24
19624;BME280;9959;49.798;9.928;2023-03-21T00:10:10;99866.28;;;8.63;64.94
19624;BME280;9959;49.798;9.928;2023-03-21T00:12:45;99865.50;;;8.69;65.12
19624;BME280;9959;49.798;9.928;2023-03-21T00:15:15;99867.09;;;8.64;65.38
19624;BME280;9959;49.798;9.928;2023-03-21T00:17:48;99861.94;;;8.62;65.78
19624;BME280;9959;49.798;9.928;2023-03-21T00:20:16;99865.25;;;8.64;65.21
19624;BME280;9959;49.798;9.928;2023-03-21T00:22:42;99857.38;;;8.63;65.49
19624;BME280;9959;49.798;9.928;2023-03-21T00:25:09;99861.75;;;8.64;65.40
19624;BME280;9959;49.798;9.928;2023-03-21T00:27:36;99855.97;;;8.67;65.50
19624;BME280;9959;49.798;9.928;2023-03-21T00:30:23;99851.38;;;8.61;65.18
19624;BME280;9959;49.798;9.928;2023-03-21T00:32:50;99856.69;;;8.54;65.43
19624;BME280;9959;49.798;9.928;2023-03-21T00:35:22;99857.13;;;8.58;65.93
19624;BME280;9959;49.798;9.928;2023-03-21T00:38:09;99865.44;;;8.63;64.09
19624;BME280;9959;49.798;9.928;2023-03-21T00:40:36;99854.38;;;8.72;63.64
19624;BME280;9959;49.798;9.928;2023-03-21T00:43:14;99846.91;;;8.68;64.04
19624;BME280;9959;49.798;9.928;2023-03-21T00:45:43;99847.28;;;8.65;64.26
19624;BME280;9959;49.798;9.928;2023-03-21T00:48:11;99841.09;;;8.64;65.19
19624;BME280;9959;49.798;9.928;2023-03-21T00:50:39;99836.59;;;8.71;64.58
19624;BME280;9959;49.798;9.928;2023-03-21T00:53:06;99835.13;;;8.69;64.54
19624;BME280;9959;49.798;9.928;2023-03-21T00:55:33;99835.25;;;8.61;65.71
19624;BME280;9959;49.798;9.928;2023-03-21T00:58:00;99828.22;;;8.60;66.19
19624;BME280;9959;49.798;9.928;2023-03-21T01:00:28;99827.41;;;8.59;66.04
19624;BME280;9959;49.798;9.928;2023-03-21T01:02:56;99826.97;;;8.56;65.87
19624;BME280;9959;49.798;9.928;2023-03-21T01:05:30;99819.53;;;8.58;65.90
19624;BME280;9959;49.798;9.928;2023-03-21T01:08:16;99821.16;;;8.52;65.85
19624;BME280;9959;49.798;9.928;2023-03-21T01:10:55;99821.59;;;8.56;66.80
19624;BME280;9959;49.798;9.928;2023-03-21T01:13:23;99820.50;;;8.50;67.15
19624;BME280;9959;49.798;9.928;2023-03-21T01:15:53;99815.38;;;8.55;66.35
19624;BME280;9959;49.798;9.928;2023-03-21T01:18:24;99813.88;;;8.46;66.34
19624;BME280;9959;49.798;9.928;2023-03-21T01:20:54;99827.25;;;8.39;66.66
19624;BME280;9959;49.798;9.928;2023-03-21T01:23:23;99824.31;;;8.34;66.95
19624;BME280;9959;49.798;9.928;2023-03-21T01:25:52;99822.66;;;8.33;67.57
19624;BME280;9959;49.798;9.928;2023-03-21T01:28:20;99823.47;;;8.34;67.31
19624;BME280;9959;49.798;9.928;2023-03-21T01:30:48;99824.31;;;8.34;66.74
19624;BME280;9959;49.798;9.928;2023-03-21T01:33:16;99822.28;;;8.22;67.62
19624;BME280;9959;49.798;9.928;2023-03-21T01:35:44;99830.28;;;8.15;67.96
19624;BME280;9959;49.798;9.928;2023-03-21T01:38:23;99826.22;;;8.19;69.27
19624;BME280;9959;49.798;9.928;2023-03-21T01:40:50;99821.59;;;8.13;70.36
19624;BME280;9959;49.798;9.928;2023-03-21T01:48:30;99815.34;;;8.06;71.65
19624;BME280;9959;49.798;9.928;2023-03-21T01:50:58;99816.09;;;8.00;72.80
19624;BME280;9959;49.798;9.928;2023-03-21T01:53:27;99813.88;;;8.03;72.38
19624;BME280;9959;49.798;9.928;2023-03-21T01:55:58;99805.75;;;7.97;73.48
19624;BME280;9959;49.798;9.928;2023-03-21T01:58:27;99809.44;;;7.96;73.72
19624;BME280;9959;49.798;9.928;2023-03-21T02:00:55;99809.69;;;7.79;74.50
19624;BME280;9959;49.798;9.928;2023-03-21T02:03:22;99812.19;;;7.81;75.11
19624;BME280;9959;49.798;9.928;2023-03-21T02:08:30;99813.88;;;7.67;75.26
19624;BME280;9959;49.798;9.928;2023-03-21T02:11:06;99809.97;;;7.85;75.24
19624;BME280;9959;49.798;9.928;2023-03-21T02:13:33;99809.31;;;7.82;75.65
19624;BME280;9959;49.798;9.928;2023-03-21T02:37:34;99787.91;;;7.17;79.10
19624;BME280;9959;49.798;9.928;2023-03-21T02:40:09;99784.97;;;6.97;79.82
19624;BME280;9959;49.798;9.928;2023-03-21T02:45:31;99778.13;;;7.24;78.42
19624;BME280;9959;49.798;9.928;2023-03-21T02:50:40;99769.16;;;7.32;77.63
19624;BME280;9959;49.798;9.928;2023-03-21T02:53:12;99775.25;;;7.26;77.67
19624;BME280;9959;49.798;9.928;2023-03-21T02:55:41;99785.78;;;7.12;78.41
19624;BME280;9959;49.798;9.928;2023-03-21T02:58:11;99781.38;;;6.90;79.93
19624;BME280;9959;49.798;9.928;2023-03-21T03:00:39;99785.34;;;6.94;79.85
19624;BME280;9959;49.798;9.928;2023-03-21T03:03:09;99776.41;;;7.02;79.76
19624;BME280;9959;49.798;9.928;2023-03-21T03:05:52;99786.28;;;7.01;79.52
19624;BME280;9959;49.798;9.928;2023-03-21T03:08:47;99776.00;;;6.90;80.07
19624;BME280;9959;49.798;9.928;2023-03-21T03:11:30;99770.13;;;6.80;80.59
19624;BME280;9959;49.798;9.928;2023-03-21T03:19:35;99778.22;;;6.57;81.23
19624;BME280;9959;49.798;9.928;2023-03-21T03:22:45;99780.16;;;6.63;81.58
19624;BME280;9959;49.798;9.928;2023-03-21T03:25:19;99782.34;;;6.45;82.44
19624;BME280;9959;49.798;9.928;2023-03-21T03:28:07;99783.38;;;6.59;81.34
19624;BME280;9959;49.798;9.928;2023-03-21T03:30:36;99779.38;;;6.40;82.53
19624;BME280;9959;49.798;9.928;2023-03-21T03:33:15;99773.53;;;6.22;83.36
19624;BME280;9959;49.798;9.928;2023-03-21T03:35:43;99772.41;;;6.16;83.93
19624;BME280;9959;49.798;9.928;2023-03-21T03:38:20;99772.25;;;6.18;83.61
19624;BME280;9959;49.798;9.928;2023-03-21T03:40:52;99772.41;;;6.16;83.91
19624;BME280;9959;49.798;9.928;2023-03-21T03:43:25;99772.72;;;6.21;83.77
19624;BME280;9959;49.798;9.928;2023-03-21T03:48:39;99783.41;;;6.21;84.59
19624;BME280;9959;49.798;9.928;2023-03-21T03:51:16;99774.50;;;6.06;84.73
19624;BME280;9959;49.798;9.928;2023-03-21T03:53:52;99775.38;;;6.21;83.44
19624;BME280;9959;49.798;9.928;2023-03-21T03:56:21;99780.84;;;6.05;83.92
19624;BME280;9959;49.798;9.928;2023-03-21T03:58:51;99777.44;;;5.96;84.80
19624;BME280;9959;49.798;9.928;2023-03-21T04:01:17;99775.28;;;5.92;84.81
19624;BME280;9959;49.798;9.928;2023-03-21T04:03:46;99769.72;;;6.01;84.70
19624;BME280;9959;49.798;9.928;2023-03-21T04:06:24;99763.59;;;5.85;85.20
19624;BME280;9959;49.798;9.928;2023-03-21T04:08:51;99760.91;;;5.93;85.80
19624;BME280;9959;49.798;9.928;2023-03-21T04:11:18;99775.88;;;6.02;86.25
19624;BME280;9959;49.798;9.928;2023-03-21T04:13:45;99772.63;;;5.92;87.59
19624;BME280;9959;49.798;9.928;2023-03-21T04:16:11;99769.66;;;5.78;88.60
19624;BME280;9959;49.798;9.928;2023-03-21T04:18:40;99762.56;;;5.71;89.35
19624;BME280;9959;49.798;9.928;2023-03-21T04:21:09;99768.34;;;5.74;89.14
19624;BME280;9959;49.798;9.928;2023-03-21T04:23:36;99766.56;;;5.98;88.54
19624;BME280;9959;49.798;9.928;2023-03-21T04:26:06;99754.06;;;5.90;88.05
19624;BME280;9959;49.798;9.928;2023-03-21T04:28:33;99755.25;;;6.10;87.20
19624;BME280;9959;49.798;9.928;2023-03-21T04:33:47;99762.72;;;6.15;86.11
19624;BME280;9959;49.798;9.928;2023-03-21T04:36:15;99763.63;;;6.07;86.76
19624;BME280;9959;49.798;9.928;2023-03-21T04:38:53;99767.22;;;6.00;87.47
19624;BME280;9959;49.798;9.928;2023-03-21T04:41:22;99767.13;;;6.08;87.00
19624;BME280;9959;49.798;9.928;2023-03-21T04:43:49;99769.81;;;6.08;87.15
19624;BME280;9959;49.798;9.928;2023-03-21T04:46:18;99770.88;;;6.22;85.88
19624;BME280;9959;49.798;9.928;2023-03-21T04:48:45;99775.03;;;6.24;85.36
19624;BME280;9959;49.798;9.928;2023-03-21T04:51:15;99768.22;;;6.36;84.24
19624;BME280;9959;49.798;9.928;2023-03-21T04:53:42;99762.38;;;6.33;83.96
19624;BME280;9959;49.798;9.928;2023-03-21T04:56:11;99757.81;;;6.41;83.39
19624;BME280;9959;49.798;9.928;2023-03-21T04:58:38;99760.59;;;6.48;83.23
19624;BME280;9959;49.798;9.928;2023-03-21T05:01:06;99753.94;;;6.44;83.11
19624;BME280;9959;49.798;9.928;2023-03-21T05:03:34;99759.75;;;6.48;83.46
19624;BME280;9959;49.798;9.928;2023-03-21T05:06:06;99763.50;;;6.38;83.27
19624;BME280;9959;49.798;9.928;2023-03-21T05:08:34;99768.88;;;6.38;83.58
19624;BME280;9959;49.798;9.928;2023-03-21T05:11:03;99758.28;;;6.45;83.28
19624;BME280;9959;49.798;9.928;2023-03-21T05:13:31;99764.63;;;6.44;83.23
19624;BME280;9959;49.798;9.928;2023-03-21T05:15:58;99764.09;;;6.49;83.71
19624;BME280;9959;49.798;9.928;2023-03-21T05:18:25;99764.81;;;6.42;83.47
19624;BME280;9959;49.798;9.928;2023-03-21T05:20:52;99761.72;;;6.54;83.41
19624;BME280;9959;49.798;9.928;2023-03-21T05:23:23;99761.59;;;6.47;83.24
19624;BME280;9959;49.798;9.928;2023-03-21T05:25:50;99758.09;;;6.47;83.44
19624;BME280;9959;49.798;9.928;2023-03-21T05:28:17;99763.56;;;6.53;83.90
19624;BME280;9959;49.798;9.928;2023-03-21T05:30:45;99762.34;;;6.56;83.32
19624;BME280;9959;49.798;9.928;2023-03-21T05:33:12;99753.56;;;6.62;83.44
19624;BME280;9959;49.798;9.928;2023-03-21T05:35:39;99753.38;;;6.63;83.30
19624;BME280;9959;49.798;9.928;2023-03-21T05:38:06;99754.94;;;6.58;83.58
19624;BME280;9959;49.798;9.928;2023-03-21T05:40:33;99757.00;;;6.56;83.77
19624;BME280;9959;49.798;9.928;2023-03-21T05:43:00;99760.78;;;6.61;83.49
19624;BME280;9959;49.798;9.928;2023-03-21T05:45:27;99750.53;;;6.65;83.17
19624;BME280;9959;49.798;9.928;2023-03-21T05:47:54;99758.75;;;6.63;83.70
19624;BME280;9959;49.798;9.928;2023-03-21T05:50:20;99759.56;;;6.64;83.72
19624;BME280;9959;49.798;9.928;2023-03-21T05:52:47;99763.81;;;6.58;83.68
19624;BME280;9959;49.798;9.928;2023-03-21T05:55:14;99763.56;;;6.53;83.58
19624;BME280;9959;49.798;9.928;2023-03-21T05:57:41;99766.88;;;6.55;84.03
19624;BME280;9959;49.798;9.928;2023-03-21T06:00:08;99759.88;;;6.54;84.18
19624;BME280;9959;49.798;9.928;2023-03-21T06:02:35;99765.47;;;6.59;83.85
19624;BME280;9959;49.798;9.928;2023-03-21T06:05:03;99762.19;;;6.72;83.74
19624;BME280;9959;49.798;9.928;2023-03-21T06:07:28;99763.19;;;6.71;83.34
19624;BME280;9959;49.798;9.928;2023-03-21T06:09:55;99756.63;;;6.73;83.49
19624;BME280;9959;49.798;9.928;2023-03-21T06:12:25;99761.06;;;6.81;83.67
19624;BME280;9959;49.798;9.928;2023-03-21T06:14:51;99759.06;;;6.83;83.29
19624;BME280;9959;49.798;9.928;2023-03-21T06:17:18;99760.25;;;6.81;83.23
19624;BME280;9959;49.798;9.928;2023-03-21T06:19:45;99757.56;;;6.95;82.94
19624;BME280;9959;49.798;9.928;2023-03-21T06:22:12;99761.72;;;6.98;82.43
19624;BME280;9959;49.798;9.928;2023-03-21T06:24:39;99763.09;;;7.08;81.48
19624;BME280;9959;49.798;9.928;2023-03-21T06:27:06;99767.69;;;7.14;81.40
19624;BME280;9959;49.798;9.928;2023-03-21T06:29:32;99762.31;;;7.14;81.01
19624;BME280;9959;49.798;9.928;2023-03-21T06:31:59;99769.34;;;7.16;81.02
19624;BME280;9959;49.798;9.928;2023-03-21T06:34:26;99761.59;;;7.21;80.19
19624;BME280;9959;49.798;9.928;2023-03-21T06:36:53;99766.94;;;7.21;80.63
19624;BME280;9959;49.798;9.928;2023-03-21T06:39:20;99782.59;;;7.02;81.76
19624;BME280;9959;49.798;9.928;2023-03-21T06:41:47;99778.25;;;7.01;82.32
19624;BME280;9959;49.798;9.928;2023-03-21T06:44:14;99775.56;;;7.01;82.74
19624;BME280;9959;49.798;9.928;2023-03-21T06:46:41;99773.03;;;7.14;82.74
19624;BME280;9959;49.798;9.928;2023-03-21T06:49:08;99775.53;;;7.16;82.29
19624;BME280;9959;49.798;9.928;2023-03-21T06:51:35;99776.00;;;7.20;81.39
19624;BME280;9959;49.798;9.928;2023-03-21T06:54:02;99780.16;;;7.22;80.50
19624;BME280;9959;49.798;9.928;2023-03-21T06:56:29;99777.06;;;7.40;79.64
19624;BME280;9959;49.798;9.928;2023-03-21T06:58:56;99772.16;;;7.43;80.05
19624;BME280;9959;49.798;9.928;2023-03-21T07:01:23;99771.13;;;7.59;79.27
19624;BME280;9959;49.798;9.928;2023-03-21T07:03:50;99777.78;;;7.63;79.10
19624;BME280;9959;49.798;9.928;2023-03-21T07:06:19;99775.84;;;7.78;78.86
19624;BME280;9959;49.798;9.928;2023-03-21T07:08:45;99771.66;;;7.91;77.91
19624;BME280;9959;49.798;9.928;2023-03-21T07:11:13;99769.63;;;7.93;75.96
19624;BME280;9959;49.798;9.928;2023-03-21T07:13:40;99775.41;;;7.96;76.18
19624;BME280;9959;49.798;9.928;2023-03-21T07:16:07;99771.25;;;8.15;75.08
19624;BME280;9959;49.798;9.928;2023-03-21T07:18:34;99769.97;;;8.11;74.58
19624;BME280;9959;49.798;9.928;2023-03-21T07:21:01;99769.31;;;8.30;73.93
19624;BME280;9959;49.798;9.928;2023-03-21T07:23:28;99765.75;;;8.44;73.13
19624;BME280;9959;49.798;9.928;2023-03-21T07:25:55;99765.75;;;8.44;72.89
19624;BME280;9959;49.798;9.928;2023-03-21T07:28:22;99757.25;;;8.69;71.46
19624;BME280;9959;49.798;9.928;2023-03-21T07:30:55;99759.94;;;8.69;71.44
19624;BME280;9959;49.798;9.928;2023-03-21T07:33:24;99761.84;;;8.75;71.55
19624;BME280;9959;49.798;9.928;2023-03-21T07:35:52;99768.19;;;9.08;70.35
19624;BME280;9959;49.798;9.928;2023-03-21T07:38:20;99762.03;;;9.14;69.77
19624;BME280;9959;49.798;9.928;2023-03-21T07:40:47;99762.13;;;9.34;68.81
19624;BME280;9959;49.798;9.928;2023-03-21T07:43:15;99759.63;;;9.33;68.22
19624;BME280;9959;49.798;9.928;2023-03-21T07:46:02;99755.84;;;9.75;66.55
19624;BME280;9959;49.798;9.928;2023-03-21T07:48:29;99754.66;;;10.04;65.70
19624;BME280;9959;49.798;9.928;2023-03-21T07:50:56;99762.34;;;10.46;63.84
19624;BME280;9959;49.798;9.928;2023-03-21T07:53:23;99765.66;;;10.48;63.73
19624;BME280;9959;49.798;9.928;2023-03-21T07:55:54;99761.47;;;10.06;64.42
19624;BME280;9959;49.798;9.928;2023-03-21T07:58:24;99760.06;;;10.30;64.19
19624;BME280;9959;49.798;9.928;2023-03-21T08:00:52;99761.69;;;10.05;64.03
19624;BME280;9959;49.798;9.928;2023-03-21T08:03:21;99762.75;;;10.63;63.11
19624;BME280;9959;49.798;9.928;2023-03-21T08:05:49;99766.69;;;10.47;63.03
19624;BME280;9959;49.798;9.928;2023-03-21T08:08:16;99759.44;;;10.61;62.36
19624;BME280;9959;49.798;9.928;2023-03-21T08:10:43;99754.00;;;10.68;61.99
19624;BME280;9959;49.798;9.928;2023-03-21T08:13:11;99763.31;;;10.85;61.10
19624;BME280;9959;49.798;9.928;2023-03-21T08:15:38;99751.56;;;11.24;59.97
19624;BME280;9959;49.798;9.928;2023-03-21T08:18:08;99758.28;;;11.08;60.47
19624;BME280;9959;49.798;9.928;2023-03-21T08:20:36;99753.69;;;11.15;59.91
19624;BME280;9959;49.798;9.928;2023-03-21T08:23:02;99746.31;;;11.42;59.24
19624;BME280;9959;49.798;9.928;2023-03-21T08:25:29;99751.78;;;11.29;59.51
19624;BME280;9959;49.798;9.928;2023-03-21T08:27:56;99749.44;;;11.46;59.15
19624;BME280;9959;49.798;9.928;2023-03-21T08:30:25;99735.38;;;11.31;59.11
19624;BME280;9959;49.798;9.928;2023-03-21T08:32:58;99733.94;;;11.28;60.10
19624;BME280;9959;49.798;9.928;2023-03-21T08:35:27;99740.75;;;11.75;57.57
19624;BME280;9959;49.798;9.928;2023-03-21T08:37:54;99735.22;;;12.70;54.03
19624;BME280;9959;49.798;9.928;2023-03-21T08:40:21;99732.63;;;13.36;51.53
19624;BME280;9959;49.798;9.928;2023-03-21T08:42:48;99737.78;;;13.86;49.67
19624;BME280;9959;49.798;9.928;2023-03-21T08:45:16;99733.56;;;14.02;50.13
19624;BME280;9959;49.798;9.928;2023-03-21T08:47:44;99729.44;;;13.58;51.05
19624;BME280;9959;49.798;9.928;2023-03-21T08:50:17;99731.09;;;13.59;51.19
19624;BME280;9959;49.798;9.928;2023-03-21T08:52:45;99727.47;;;13.65;50.53
19624;BME280;9959;49.798;9.928;2023-03-21T08:55:12;99727.72;;;13.45;50.92
19624;BME280;9959;49.798;9.928;2023-03-21T08:57:39;99727.16;;;13.84;49.86
19624;BME280;9959;49.798;9.928;2023-03-21T09:00:09;99722.22;;;13.81;49.51
19624;BME280;9959;49.798;9.928;2023-03-21T09:02:43;99720.34;;;13.52;50.10
19624;BME280;9959;49.798;9.928;2023-03-21T09:05:10;99724.28;;;13.38;50.54
19624;BME280;9959;49.798;9.928;2023-03-21T09:07:38;99716.88;;;13.63;50.29
19624;BME280;9959;49.798;9.928;2023-03-21T09:10:08;99716.25;;;13.91;48.65
19624;BME280;9959;49.798;9.928;2023-03-21T09:12:52;99713.22;;;13.69;49.31
19624;BME280;9959;49.798;9.928;2023-03-21T09:15:21;99715.78;;;14.06;48.21
19624;BME280;9959;49.798;9.928;2023-03-21T09:17:50;99713.19;;;13.99;48.93
19624;BME280;9959;49.798;9.928;2023-03-21T09:20:21;99717.34;;;14.25;47.66
19624;BME280;9959;49.798;9.928;2023-03-21T09:22:52;99707.22;;;15.02;46.09
19624;BME280;9959;49.798;9.928;2023-03-21T09:25:19;99708.53;;;15.00;46.03
19624;BME280;9959;49.798;9.928;2023-03-21T09:27:47;99705.09;;;15.33;44.87
19624;BME280;9959;49.798;9.928;2023-03-21T09:30:19;99698.16;;;14.85;45.79
19624;BME280;9959;49.798;9.928;2023-03-21T09:32:51;99690.31;;;15.52;44.60
19624;BME280;9959;49.798;9.928;2023-03-21T09:35:19;99686.66;;;15.58;44.02
19624;BME280;9959;49.798;9.928;2023-03-21T09:37:47;99692.72;;;15.65;43.95
19624;BME280;9959;49.798;9.928;2023-03-21T09:40:18;99683.53;;;15.66;43.75
19624;BME280;9959;49.798;9.928;2023-03-21T09:43:04;99693.03;;;15.80;43.53
19624;BME280;9959;49.798;9.928;2023-03-21T09:45:40;99689.25;;;16.32;41.86
19624;BME280;9959;49.798;9.928;2023-03-21T09:48:19;99694.69;;;17.52;39.98
19624;BME280;9959;49.798;9.928;2023-03-21T09:50:55;99700.69;;;16.17;42.02
19624;BME280;9959;49.798;9.928;2023-03-21T09:53:34;99690.31;;;16.47;41.50
19624;BME280;9959;49.798;9.928;2023-03-21T09:56:04;99699.53;;;16.63;41.13
19624;BME280;9959;49.798;9.928;2023-03-21T09:58:36;99687.13;;;17.33;39.51
19624;BME280;9959;49.798;9.928;2023-03-21T10:01:16;99682.56;;;17.16;39.93
19624;BME280;9959;49.798;9.928;2023-03-21T10:06:34;99683.72;;;17.20;40.04
19624;BME280;9959;49.798;9.928;2023-03-21T10:09:12;99680.94;;;16.38;41.65
19624;BME280;9959;49.798;9.928;2023-03-21T10:11:43;99681.75;;;16.22;42.47
19624;BME280;9959;49.798;9.928;2023-03-21T10:14:18;99677.91;;;16.90;40.94
19624;BME280;9959;49.798;9.928;2023-03-21T10:16:48;99673.78;;;16.32;41.43
19624;BME280;9959;49.798;9.928;2023-03-21T10:19:18;99671.19;;;17.19;40.44
19624;BME280;9959;49.798;9.928;2023-03-21T10:21:47;99672.63;;;17.05;40.67
19624;BME280;9959;49.798;9.928;2023-03-21T10:24:27;99669.38;;;16.48;41.47
19624;BME280;9959;49.798;9.928;2023-03-21T10:26:55;99670.72;;;17.06;40.50
19624;BME280;9959;49.798;9.928;2023-03-21T10:29:26;99669.53;;;16.58;41.08
19624;BME280;9959;49.798;9.928;2023-03-21T10:31:54;99657.72;;;17.35;39.87
19624;BME280;9959;49.798;9.928;2023-03-21T10:34:30;99658.66;;;17.18;40.73
19624;BME280;9959;49.798;9.928;2023-03-21T10:37:02;99651.72;;;16.50;41.76
19624;BME280;9959;49.798;9.928;2023-03-21T10:39:35;99651.16;;;17.31;40.09
19624;BME280;9959;49.798;9.928;2023-03-21T10:42:03;99640.50;;;17.83;40.14
19624;BME280;9959;49.798;9.928;2023-03-21T10:44:32;99646.41;;;18.02;39.23
19624;BME280;9959;49.798;9.928;2023-03-21T10:49:32;99633.41;;;18.51;38.47
19624;BME280;9959;49.798;9.928;2023-03-21T10:52:11;99646.16;;;17.71;40.55
19624;BME280;9959;49.798;9.928;2023-03-21T10:54:39;99638.06;;;17.81;40.23
19624;BME280;9959;49.798;9.928;2023-03-21T10:57:15;99640.13;;;17.42;40.86
19624;BME280;9959;49.798;9.928;2023-03-21T10:59:52;99633.41;;;18.51;39.12
19624;BME280;9959;49.798;9.928;2023-03-21T11:02:34;99640.47;;;18.10;39.80
19624;BME280;9959;49.798;9.928;2023-03-21T11:07:29;99640.00;;;17.59;39.93
19624;BME280;9959;49.798;9.928;2023-03-21T11:09:59;99639.34;;;17.47;40.68
19624;BME280;9959;49.798;9.928;2023-03-21T11:12:38;99645.69;;;17.31;40.93
19624;BME280;9959;49.798;9.928;2023-03-21T11:15:29;99642.44;;;16.85;41.36
19624;BME280;9959;49.798;9.928;2023-03-21T11:17:57;99638.13;;;16.50;42.09
19624;BME280;9959;49.798;9.928;2023-03-21T11:20:28;99629.97;;;17.11;40.91
19624;BME280;9959;49.798;9.928;2023-03-21T11:22:56;99634.41;;;17.44;40.86
19624;BME280;9959;49.798;9.928;2023-03-21T11:25:34;99634.16;;;17.18;41.44
19624;BME280;9959;49.798;9.928;2023-03-21T11:30:32;99620.88;;;17.81;40.45
19624;BME280;9959;49.798;9.928;2023-03-21T11:33:03;99616.00;;;17.56;40.71
19624;BME280;9959;49.798;9.928;2023-03-21T11:35:36;99621.75;;;17.33;41.26
19624;BME280;9959;49.798;9.928;2023-03-21T11:38:05;99611.38;;;16.81;42.42
19624;BME280;9959;49.798;9.928;2023-03-21T11:40:53;99613.94;;;17.14;41.64
19624;BME280;9959;49.798;9.928;2023-03-21T11:43:31;99604.72;;;17.15;41.61
19624;BME280;9959;49.798;9.928;2023-03-21T11:48:37;99600.66;;;16.96;41.86
19624;BME280;9959;49.798;9.928;2023-03-21T11:51:13;99605.84;;;16.98;42.24
19624;BME280;9959;49.798;9.928;2023-03-21T11:53:50;99606.06;;;16.52;42.97
19624;BME280;9959;49.798;9.928;2023-03-21T11:56:33;99597.25;;;17.33;41.16
19624;BME280;9959;49.798;9.928;2023-03-21T12:09:34;99583.97;;;18.00;40.95
19624;BME280;9959;49.798;9.928;2023-03-21T12:14:50;99578.13;;;17.27;42.07
19624;BME280;9959;49.798;9.928;2023-03-21T12:17:36;99568.84;;;18.72;39.20
19624;BME280;9959;49.798;9.928;2023-03-21T12:25:59;99567.63;;;18.47;40.12
19624;BME280;9959;49.798;9.928;2023-03-21T12:37:02;99551.38;;;17.46;41.78
19624;BME280;9959;49.798;9.928;2023-03-21T12:39:35;99544.28;;;17.45;42.61
19624;BME280;9959;49.798;9.928;2023-03-21T12:44:35;99541.09;;;17.26;43.14
19624;BME280;9959;49.798;9.928;2023-03-21T12:49:34;99547.94;;;17.29;42.52
19624;BME280;9959;49.798;9.928;2023-03-21T12:54:35;99536.59;;;17.10;42.71
19624;BME280;9959;49.798;9.928;2023-03-21T12:57:11;99530.19;;;16.73;43.65
19624;BME280;9959;49.798;9.928;2023-03-21T12:59:51;99531.22;;;16.67;43.36
19624;BME280;9959;49.798;9.928;2023-03-21T13:02:33;99532.97;;;16.78;43.04
19624;BME280;9959;49.798;9.928;2023-03-21T13:07:33;99522.41;;;16.81;43.03
19624;BME280;9959;49.798;9.928;2023-03-21T13:10:05;99526.81;;;16.44;43.58
19624;BME280;9959;49.798;9.928;2023-03-21T13:15:27;99518.03;;;16.80;42.71
19624;BME280;9959;49.798;9.928;2023-03-21T13:20:45;99511.31;;;16.88;43.08
19624;BME280;9959;49.798;9.928;2023-03-21T13:23:12;99509.81;;;16.53;43.39
19624;BME280;9959;49.798;9.928;2023-03-21T13:25:48;99505.25;;;16.81;42.77
19624;BME280;9959;49.798;9.928;2023-03-21T13:28:21;99503.25;;;16.98;42.53
19624;BME280;9959;49.798;9.928;2023-03-21T13:30:52;99505.63;;;17.16;42.29
19624;BME280;9959;49.798;9.928;2023-03-21T13:33:22;99508.56;;;16.39;44.25
19624;BME280;9959;49.798;9.928;2023-03-21T13:38:35;99502.19;;;17.31;42.53
19624;BME280;9959;49.798;9.928;2023-03-21T13:41:12;99501.06;;;17.22;42.41
19624;BME280;9959;49.798;9.928;2023-03-21T13:43:44;99490.25;;;17.05;42.42
19624;BME280;9959;49.798;9.928;2023-03-21T13:59:16;99485.03;;;16.50;44.39
19624;BME280;9959;49.798;9.928;2023-03-21T14:02:01;99494.16;;;15.78;45.57
19624;BME280;9959;49.798;9.928;2023-03-21T14:04:30;99495.81;;;15.63;45.90
19624;BME280;9959;49.798;9.928;2023-03-21T14:07:28;99483.50;;;15.94;45.79
19624;BME280;9959;49.798;9.928;2023-03-21T14:10:00;99483.78;;;15.75;46.52
19624;BME280;9959;49.798;9.928;2023-03-21T14:12:35;99481.91;;;15.26;47.80
19624;BME280;9959;49.798;9.928;2023-03-21T14:17:52;99491.25;;;15.01;49.76
19624;BME280;9959;49.798;9.928;2023-03-21T14:20:26;99489.31;;;14.85;50.91
19624;BME280;9959;49.798;9.928;2023-03-21T14:22:54;99487.09;;;14.82;50.84
19624;BME280;9959;49.798;9.928;2023-03-21T14:25:23;99485.59;;;14.74;53.03
19624;BME280;9959;49.798;9.928;2023-03-21T14:27:59;99491.06;;;14.63;52.60
19624;BME280;9959;49.798;9.928;2023-03-21T14:30:38;99477.13;;;14.42;53.33
19624;BME280;9959;49.798;9.928;2023-03-21T14:33:19;99481.28;;;14.21;53.46
19624;BME280;9959;49.798;9.928;2023-03-21T14:35:48;99493.91;;;14.16;55.93
19624;BME280;9959;49.798;9.928;2023-03-21T14:38:22;99476.34;;;14.18;57.98
19624;BME280;9959;49.798;9.928;2023-03-21T14:40:52;99489.19;;;14.00;56.73
19624;BME280;9959;49.798;9.928;2023-03-21T14:43:22;99492.53;;;13.78;57.54
19624;BME280;9959;49.798;9.928;2023-03-21T14:45:50;99488.03;;;13.49;59.51
19624;BME280;9959;49.798;9.928;2023-03-21T14:48:28;99493.00;;;13.52;62.61
19624;BME280;9959;49.798;9.928;2023-03-21T14:50:59;99492.41;;;13.38;63.19
19624;BME280;9959;49.798;9.928;2023-03-21T14:53:29;99506.69;;;13.15;63.10
19624;BME280;9959;49.798;9.928;2023-03-21T14:58:24;99500.75;;;12.95;66.22
19624;BME280;9959;49.798;9.928;2023-03-21T15:00:55;99497.41;;;12.81;67.63
19624;BME280;9959;49.798;9.928;2023-03-21T15:03:23;99506.28;;;12.70;69.39
19624;BME280;9959;49.798;9.928;2023-03-21T15:05:57;99497.41;;;12.51;73.65
19624;BME280;9959;49.798;9.928;2023-03-21T15:08:26;99497.13;;;12.41;71.24
19624;BME280;9959;49.798;9.928;2023-03-21T15:11:01;99495.91;;;12.37;72.62
19624;BME280;9959;49.798;9.928;2023-03-21T15:13:43;99498.78;;;12.24;73.60
19624;BME280;9959;49.798;9.928;2023-03-21T15:16:11;99492.34;;;12.25;73.73
19624;BME280;9959;49.798;9.928;2023-03-21T15:18:41;99500.50;;;12.37;73.02
19624;BME280;9959;49.798;9.928;2023-03-21T15:23:47;99495.00;;;12.43;74.77
19624;BME280;9959;49.798;9.928;2023-03-21T15:26:17;99500.34;;;12.32;74.34
19624;BME280;9959;49.798;9.928;2023-03-21T15:28:46;99504.63;;;12.39;76.21
19624;BME280;9959;49.798;9.928;2023-03-21T15:31:16;99499.22;;;12.39;76.90
19624;BME280;9959;49.798;9.928;2023-03-21T15:33:46;99503.81;;;12.20;74.78
19624;BME280;9959;49.798;9.928;2023-03-21T15:36:18;99504.88;;;12.19;75.88
19624;BME280;9959;49.798;9.928;2023-03-21T15:38:47;99494.22;;;12.06;75.32
19624;BME280;9959;49.798;9.928;2023-03-21T15:43:43;99500.59;;;11.94;77.98